富山空港

2020/07/03

定点 富山空港 2020/7/3 fri

東京では、日に日に第二波が拡大していて、そこから行き来した人が飛び火のように、地方にウイルスを運んでいます。都会へ行って来た人は、自身の行動を振り返り、隙が無かったかよーく考えてください。

RJNT 022300Z 33003KT 300V360 9999 FEW010 SCT013 BKN045 22/20 Q1015

20200703_rjnt_00ja03an

ANA313 RJTT-RJNT JA03AN B737-781

雲底が低くて、かろうじて視認

RJNT 030000Z 36007KT 9999 VCSH FEW010 BKN020 BKN/// 22/19 Q1014

20200703_rjnt_01ja03an

20200703_rjnt_02ja03an

20200703_rjnt_03ja03an

ANA316 RJNT-RJTT JA03AN B737-781

20200703_rjnt_04kiji

用事を済ませて、まったりしていたら「ケーン、ケーン」

RJNT 030400Z 36009KT 9999 FEW015 SCT025 BKN050 24/19 Q1013

20200703_rjnt_05ja6512

JA6512↓ AS350B3 AKF

この後 JA6502 JA139T が飛んでいるのは確認した。

| | コメント (0)

2020/07/01

夜活 富山空港 2020/7/1 wed

2020年も折り返し。年初オリンピックで期待が膨らんでいたところに、武漢肺炎の襲来により、経験したことのない未曾有の事態に。自粛がやわく解除されて、本日から青組夜の便が復活するので、夜活です。

RJNT 011000Z 27007KT 9999 FEW005 BKN018 23/19 Q1003

20200701_rjnt_00ja05an

富山市に大雨警報が出てる中、市街地は平穏です。

20200701_rjnt_01ja05an

なんとか薄明の中、アプローチ。

20200701_rjnt_02ja05an

山で大量の降雨で、河は濁流です。

20200701_rjnt_03ja05an

ANA319 RJTT-RJNT JA05AN B737-781

20200701_rjnt_04toyama

4月16日以来の319到着です。

20200701_rjnt_05toyama

空ビル内には、ガイドラインが掲示されています。

20200701_rjnt_06toyama

20200701_rjnt_07ja05an

約40名ほどの搭乗。

20200701_rjnt_08ja05an

20200701_rjnt_09ja05an

ANA322 RJNT-RJTT JA05AN B737-781

20200701_rjnt_10ja05an

当面チビ3が入るようです。neoはどっか行っちゃいます。

20200701_rjnt_11ja05an

ニューノーマルは、三歩進んで一歩下がるくらいのペースなのかな。

| | コメント (0)

2020/06/28

懐古蔵出:年始 富山・東京国際空港 2002/1/3 thu

普通のサラリーマンで正月休みで三が日の間に東京戻りです。

20020103_rjtt_00ja8289

一応、冬景色の富山空港です。

20020103_rjtt_01ja8363

除雪の為始発便は遅延してました。

20020103_rjtt_02ja8289

ANA881 RJTT-RJNT JA8289 B767-381

20020103_rjtt_03ja8363

881が到着してからプッシュバック

20020103_rjtt_04ja8363

ANA882 RJNT-RJTT JA8363 B767-381

小生は、884で東京に帰ります。

20020103_rjtt_05b747

羽田は典型的な冬型。北風が強く、視程がすこぶる良いです。

20020103_rjtt_06ja8978

JA8978 B777-289 富士山は北側に雪雲がかかっています。

20020103_rjtt_07ja8084

JA8084 B747-446D

20020103_rjtt_08ja8084

JALもバブリーの極みでした。

20020103_rjtt_09ja8944

JA8944 B777-346

20020103_rjtt_10hme

羽田VOR/DME(HWE) この時期は、まだここに。

20020103_rjtt_11ja767a

JA767A B767-3Q8ER いろいろあるけど、スカイは生き延びてます。

20020103_rjtt_12ja8084

ゴーグルして赤いマフラーたなびかせて、進もうよ。(水木一郎では、ない)

| | コメント (0)

2020/06/27

定点 富山空港 2020/6/27 sat

飛来機が少ない空港は、先輩達のテリトリと化してきています。

20200627_rjnt_00bird

俺の縄張りに勝ってに入るなよ!

RJNT 270000Z 26004KT 230V300 9999 FEW015 BKN/// 26/18 Q1006

20200627_rjnt_01ja211a

20200627_rjnt_02ja211a

ANA313 RJTT-RJNT JA211A A320-271N

20200627_rjnt_03ja211a

リバーサーが開く時の「グワー」って音が特徴です。

20200627_rjnt_04ja17ac

JA17AC A109SP SAK 富山県ドクターヘリ

20200627_rjnt_05ja211a

お見送りは続いています。

20200627_rjnt_06ja211a

20200627_rjnt_07ja211a

やっぱり空を飛ぶことは、イイことだ。

20200627_rjnt_08ja211a

20200627_rjnt_09ja211a

この時期だけの特等席。やっばり手を止めるよね。

20200627_rjnt_10ja211a

ANA316 RJNT-RJTT JA211A A320-271N

20200627_rjnt_11gse

さぁ、帰るぞ。水撒きしながら撤収。

20200627_rjnt_12gse

そして、誰もいなくなった。

RJNT 270100Z 26006KT 220V290 9999 FEW025 BKN/// 27/19 Q1006

20200627_rjnt_13jg

ハンターさん高空を東へ通過

RJNT 270200Z 25004KT 170V320 9999 FEW025 BKN/// 28/19 Q1006

20200627_rjnt_14ja201m

JA201M PA-28RT-201T 本日のお客様

RJNT 270400Z 26007KT 9999 FEW030 OVC/// 28/20 Q1005

20200627_rjnt_15ja201m

富山でランチ・・ ありがとうございました。

20200627_rjnt_16ja201m

脚、引っ込むのよ。

20200627_rjnt_18jn515

JN515 長時間パトロールの海鷲さんがお帰り。

 

| | コメント (0)

2020/06/23

定点 富山空港 2020/6/23 tue

RJNT 222300Z VRB03KT 9999 FEW015 24/20 Q1010

20200623_rjnt_00ja213a

20200623_rjnt_01ja213a

ANA313 RJTT-RJNT JA213A A320-271N

RJNT 230000Z 34003KT 250V060 9999 SCT015 25/18 Q1010

20200623_rjnt_02ja213a

20200623_rjnt_03ja213a

ANA316 RJNT-RJTT JA213A A320-271N

RJNT 230100Z 35005KT 270V040 9999 FEW015 SCT030 25/17 Q1010

20200623_rjnt_04ja139t

JA139T↑ AW139 富山県警察

20200623_rjnt_05ja9785

JA9785↑ AS350B TKB

RJNT 230200Z 04004KT 330V090 9999 FEW030 26/16 Q1009

20200623_rjnt_06ja888p

JA888P↓ C208 KKK JA01ADはいなかった

20200623_rjnt_07ja9785

JA9785↓ JA9878は稼働無

20200623_rjnt_08ja139t

JA139T↓

20200623_rjnt_09ja139t

ダウンウォッシュの中には、入らないように

20200623_rjnt_10ja139t

午前で撤収

| | コメント (0)

2020/06/21

定点 富山空港 2020/6/21 sun

梅雨晴れの青空。今日は、父の日、夏至、部分日食となにかと忙しい日です。

RJNT 202300Z VRB01KT 9999 FEW020 20/14 Q1012

20200621_rjnt_00ja03an

今朝は、チビでした。

20200621_rjnt_01ja03an

ANA313 RJTT-RJNT JA03AN B737-781

RJNT 210000Z 30003KT 220V350 9999 FEW025 21/13 Q1011

20200621_rjnt_02ja03an

20200621_rjnt_03ja03an

ANA316 RJNT-RJTT JA03AN B737-781

20200621_rjnt_04ja9690

JA9690↓ AS332L AKF

昨日、たぶん八尾に帰ったスパビューさんが帰ってきました。

###

 

###

RJNT 210100Z 32004KT 270V010 9999 FEW025 23/14 Q1011

20200621_rjnt_05tobi

今年は、とにかくトビが多い。よく見るとカワイイ顔つき。

20200621_rjnt_06n609up

UPS88 PANC-RKSI N609UP B747-8F

20200621_rjnt_07ja01ad

JA01AD C208 HRT あいかわらず文鎮

20200621_rjnt_08ja9785

JA9785 AS350B TKB

昨日飛来したトモエ乳業は、本日お休み

RJNT 210200Z 34006KT 290V030 9999 FEW030 24/15 Q1010

20200621_rjnt_09ja888p

まったりしてると、続々到着

20200621_rjnt_10ja888p

JA888P C208 KKK

20200621_rjnt_11ja9878

JA9878↓ AS350 THK

20200621_rjnt_12ja9878

20200621_rjnt_13ja9878

で、今日は測量機祭り

RJNT 210300Z 35007KT 320V020 9999 FEW030 24/15 Q1010

20200621_rjnt_14ja9878

JA9878↑ 給油して、早速お仕事に出発

20200621_rjnt_15ja6502

JA6502 AS350B3 AKF

20200621_rjnt_16tommbo

トンボさんが爆撃地点を策定中

20200621_rjnt_17hibari

ヒバリさんが警戒しながら草をついばみ

RJNT 210400Z 36007KT 330V050 9999 FEW030 24/15 Q1009

20200621_rjnt_18ja139t

「つるぎ」さんが引き出されると同時に呼び出しの隊員が駆け付け。

20200621_rjnt_19ja139t

なにやらS&R事案の模様

20200621_rjnt_20ja4319

JA4319 DR-400-180R

20200621_rjnt_21ja139t

JA139T AW139 富山県警察 どうも山の様

20200621_rjnt_22ja3446

JA3446 BE33

RJNT 210500Z 01010KT 9999 FEW030 24/15 Q1009

20200621_rjnt_23ja139t

無事S&R終了 東部方面に降ろしてきたみたい。

追記:剱岳の前剱付近で英国人大学院生滑落し重症

20200621_rjnt_24ja139t

JA139T↓

20200621_rjnt_25ja4319

続けてやってきた小型機が出発です。

20200621_rjnt_26ja4319

ワンタイムT&G

20200621_rjnt_27ja4319

では、お先にー

20200621_rjnt_28ja4319

JA4319↑

20200621_rjnt_29ja3446

こちらは、ノーマルテイクオフ

20200621_rjnt_30ja3446

JA3446↑

20200621_rjnt_31ja9878

JA9878↓

これにて撤収して、自宅で日食観測。

 

| | コメント (2)

2020/06/20

定点 富山空港 2020/6/20 sat

RJNT 192300Z 01007KT 9999 -SHRA FEW005 SCT015 BKN025 19/16 Q1011

たまたま休みが続いて、ちょい早めに空港。

20200620_rjnt_00ja9690

JA9690 AS332L AKF

昨日整備していたスパビューさんが出発です。

###

 

###

20200620_rjnt_01ja219a

この時期には珍しい北風で、サークリング

20200620_rjnt_02ja219a

320NEO 富山では初撮影

20200620_rjnt_03ja219a

空港の保安車が急いで02エンドへ

20200620_rjnt_04ja219a

いい捻り

20200620_rjnt_05ja219a

20200620_rjnt_06ja219a

ANA313 RJTT-RJNT JA219A A320-271N

20200620_rjnt_07ja219a

トンビさん危機一髪 しばらく大型機が来なかったので、鳥の天下になっています。

20200620_rjnt_08ja219a

これは静かです。

20200620_rjnt_09ja219a

搭乗客は40人ぐらい

20200620_rjnt_10ja01ad

調子が悪いのか、まだいる JA01AD

RJNT 200000Z 01007KT 9999 -SHRA FEW005 SCT015 BKN025 19/15 Q1011

20200620_rjnt_11ja219a

20200620_rjnt_12ja219a

20200620_rjnt_13ja219a

ANA316 RJNT-RJTT JA219A A320-271N

20200620_rjnt_14ja219a

そのうちバードストライク起こりそう

RJNT 200100Z 04005KT 360V070 9999 VCSH FEW005 SCT015 BKN025 20/14 Q1012

20200620_rjnt_15ja17ac

定期便が行ってからドクヘリ事案

20200620_rjnt_16fdp

患者さんは救急車で医師同乗で直接病院へ

20200620_rjnt_17ja17ac

現場に残った要員を回収して

20200620_rjnt_18ja17ac

JA17AC A109SP SAK 富山県ドクターへり

###

 

###

20200620_rjnt_19ja17ac

富大病院へ

RJNT 200200Z 01004KT 350V050 9999 -SHRA FEW005 SCT015 BKN025 20/16 Q1012

20200620_rjnt_20ja17ac

富大病院HP 搬送した救急車が引き上げていきます。

20200620_rjnt_21ja17ac

ドクターが戻ってきて、エンジンスタート

###

 

###

RJNT 200300Z 02007KT 350V060 9999 VCSH FEW005 SCT015 BKN025 20/15 Q1011

20200620_rjnt_22ja6506

JA6506 AS350B3 AKF

午後は、これにて引き上げ。夕方 JA9785 つくば航空が来ました。

 

| | コメント (0)

2020/06/19

定点 富山空港 2020/6/19 fri

6月16日から運行再開された富山空港の青組さん。再開後、ようやくお姿を拝みにまいりました。

RJNT 182300Z VRB02KT 9999 -RA FEW003 SCT030 BKN035 19/18 Q1000

20200619_rjnt_00ja04an

今日は、チビ

20200619_rjnt_01ja04an

ANA313 RJTT-RJNT JA04AN B737-781

RJNT 190000Z 17003KT 120V240 9999 FEW005 BKN110 21/18 Q0999

20200619_rjnt_02ja6516

JA6516↑ AS350B3 AKF

20200619_rjnt_03ja04an

エプロンでは、横断幕でお見送り

20200619_rjnt_04ja04an

はや!

20200619_rjnt_05ja04an

ANA316 RJNT-RJTT JA04AN B737-781

20200619_rjnt_06ja9690

朝日さんにスパビューが来ていました。

20200619_rjnt_07ja01ad

JA01AD 今日は、お休み 

RJNT 190100Z 34003KT 270V030 9999 FEW010 BKN100 23/18 Q0999

20200619_rjnt_08ja6516

JA6516↓

20200619_rjnt_09ja6516

JA9690 AS332L AKF 他機着陸時は、整備さんが押さえていました。

本日は、ドクヘリさん出ていたけど、夕方土砂降り前にフェリーされました。

| | コメント (0)

2020/06/15

定点 富山空港 2020/6/15 mon

コロナ禍の第一波がようやく落ち着いてきて、明日からニューライフが始まる富山空港です。

RJNT 150000Z VRB02KT 9999 FEW015 SCT020 26/22 Q1003

20200615_rjnt_00terminal

慣れてしまった、誰もいない風景

20200615_rjnt_01terminal

まずは第一便だけの復活。しばらくは、人が溢れているように感じるのかな。でも断密。

20200615_rjnt_02ja01ad

JA01AD C208 HRT 梅雨入りでしばらく文鎮。

20200615_rjnt_03ja6516

JA6516↑ AS350B3 AKF

20200615_rjnt_04ja6506

JA6506↑ AS350B3 AKF

RJNT 150100Z 27008KT 240V310 9999 FEW015 SCT018 BKN/// 27/23 Q1003

20200615_rjnt_05ja6502

JA6502↓ AS350B3 AKF

20200615_rjnt_06ja6516

JA6516↓ AS350B3 AKF

RJNT 150400Z 29009KT 250V330 9999 FEW015 BKN/// 29/21 Q1002

20200615_rjnt_07ja6506

JA6506↑ AS350B3 AKF

20200615_rjnt_08ja6768

JA6768 さんは格納庫でお留守番

RJNT 150700Z 26014G24KT 230V290 9999 FEW030 BKN/// 28/19 Q1001

20200615_rjnt_09ja6819

JA6819 B412EP NNK 国土交通省(ほくりく)

午後、視察で沿岸部を飛び廻っていました。

| | コメント (0)

2020/06/10

定点 富山空港 2020/6/10 wed

一気に夏空なれど、まだ梅雨に入ってないんだよね。朝に測量機 JA889L があがって、本日午前中は、地元機のみ。お隣さんには、新FCやら雷光2やら来たみたいですけど。

RJNT 100000Z VRB05KT 9999 FEW040 30/15 Q1015

20200610_rjnt_00ja6516

朝日さんは二機ともスタートアップ

20200610_rjnt_01ja6516

JA6516↑ AS350B3 AKF

20200610_rjnt_02ja6506

JA6506↑ AS350B3 AKF

20200610_rjnt_03ja139t

県警さんは、暑くなって電源車が付きました

###

 

###

20200610_rjnt_04ja139t

JA139T↑ AW139 富山県警察

RJNT 100100Z VRB03KT 9999 FEW030 31/13 Q1014

20200610_rjnt_05ja6516

JA6516↓

20200610_rjnt_06ja139t

JA139T↓ 午後も訓練に飛んだみたい

RJNT 100200Z 01011KT 330V030 9999 FEW030 32/14 Q1013

20200610_rjnt_07ja17ac

JA17AC A109SP SAK 富山県ドクヘリ

20200610_rjnt_08ja6506

JA6506↓

 

| | コメント (0)

より以前の記事一覧

その他のカテゴリー

BI Boading record aircraft Boading record ship FlightTracking lighthouse NAVAIDS RJNT LOG SKY MASSAGE US NAVY USMC うみ おか そら てつ アクシデント エアロック チーム室屋 三沢飛行場 上五島空港 下地島空港 下総飛行場 与論空港 与那国空港 中標津空港 中部国際空港 久米島空港 五島福江空港 仙台空港 伊江島空港 但馬空港 佐賀空港 入間飛行場 八尾空港 八戸飛行場 出雲空港 函館空港 利尻空港 北九州空港 北大東空港 十勝飛行場 千歳飛行場 南大東空港 博物館 厚木飛行場 名古屋飛行場 喜界空港 嘉手納飛行場 場外 壱岐空港 多良間空港 大分空港 大湊飛行場 大阪国際空港 大館能代空港 天草空港 奄美空港 奥尻空港 宇部山口空港 宇都宮飛行場 宮古空港 宮崎空港 富山空港 対馬空港 小松島飛行場 小松飛行場 屋久島空港 山形空港 岐阜飛行場 岡南飛行場 岡山空港 岩国飛行場 帯広空港 広島空港 庄内空港 徳之島空港 徳島飛行場 成田国際空港 新島空港 新潟空港 新田原飛行場 旭川空港 旭川飛行場 明野飛行場 普天間飛行場 木更津飛行場 札幌飛行場 東京国際空港 松山空港 松島飛行場 松本空港 横田飛行場 沖永良部空港 波照間空港 浜松飛行場 海上保安庁 海上自衛隊 海外 熊本空港 百里飛行場 相馬原飛行場 石垣空港 石見空港 礼文空港 神戸空港 神津島空港 福井空港 福岡空港 福島空港 秋田空港 稚内空港 種子島空港 空撮 立川飛行場 築城飛行場 粟国空港 美保飛行場 能登空港 舞鶴飛行場 航空自衛隊 芦屋飛行場 花巻空港 調布飛行場 警務消防 那覇空港 釧路空港 長崎空港 関西国際空港 陸上自衛隊 隠岐空港 霞ヶ浦飛行場 霞目飛行場 青森空港 静岡空港 静浜飛行場 飛行場跡 飛行船 鹿児島空港 鹿屋飛行場